Pagrindinis puslapis
METAR-TAF:

METAR-TAF

Oro uostai :

Halmstadas, Švedija

platuma: 56-41N, ilguma: 012-50E, Aukštis: 30 m

Dabartinis oras

Ataskaita buvo paskelbta 31 minutes, ne 02:50 UTC
Vėjas 6 kt iš Pietvakarių
Temperatūra 2°C
Drėgmė 80%
Slėgis 1017 hPa
Matomumas 10 km arba daugiau

METAR: ESMT 280250Z AUTO 23006KT 9999 OVC022/// 02/M01 Q1017

Laikas: 04:21 (03:21 UTC)

Prognozė

Ataskaita buvo paskelbta 10 valandos ir 17 minutes, ne 17:04 UTC
Prognozė galioja nuo 27 metu 18 UTC su 27 metu 20 UTC
Vėjas 4 kt iš Pietų
Matomumas: 4000 m
Su prošvaistėmis ne aukštis 400 ft
rūkana
Laikinai
nuo 27 metu 18 UTC su 27 metu 20 UTC
Matomumas: 8000 m
Išsisklaidę debesys ne aukštis 600 ft
Su prošvaistėmis ne aukštis 1500 ft

TAF: ESMT 271704Z 2718/2720 18004KT 4000 BR BKN004 TEMPO 2718/2720 8000 NSW SCT006 BKN015

Orai ataskaitas ir orų prognozės (METAR, TAF).

turimą stotys yra geltonos ir raudonos taškus žemėlapyje.

Perkelti pele per norėdami pamatyti stoties vardą.

Tada spustelėkite, norėdami matyti oro stebėjimo ir prognozės.

Norėdami pakeisti žemėlapį: spustelėkite ant žalios mygtukų su juodo kryžiaus žemyn,; žalią mygtuką su brūkšneliu, jei norite nutolinti; arba žalių rodyklių gretimoms žemėlapius.


METAR-TAF: